sensor_id;sensor_type;location;lat;lon;timestamp;P1;durP1;ratioP1;P2;durP2;ratioP2
76320;SDS011;65132;52.088;5.402;2023-08-01T00:01:45;4.60;;;1.17;;
76320;SDS011;65132;52.088;5.402;2023-08-01T00:04:20;4.85;;;1.55;;
76320;SDS011;65132;52.088;5.402;2023-08-01T00:06:50;3.47;;;0.90;;
76320;SDS011;65132;52.088;5.402;2023-08-01T00:09:19;6.97;;;1.42;;
76320;SDS011;65132;52.088;5.402;2023-08-01T00:11:53;3.42;;;1.00;;
76320;SDS011;65132;52.088;5.402;2023-08-01T00:14:20;3.92;;;1.10;;
76320;SDS011;65132;52.088;5.402;2023-08-01T00:16:46;4.38;;;1.40;;
76320;SDS011;65132;52.088;5.402;2023-08-01T00:19:13;4.50;;;1.13;;
76320;SDS011;65132;52.088;5.402;2023-08-01T00:21:39;6.35;;;1.77;;
76320;SDS011;65132;52.088;5.402;2023-08-01T00:24:09;3.50;;;1.23;;
76320;SDS011;65132;52.088;5.402;2023-08-01T00:26:38;5.78;;;2.28;;
76320;SDS011;65132;52.088;5.402;2023-08-01T00:29:07;4.25;;;1.10;;
76320;SDS011;65132;52.088;5.402;2023-08-01T00:31:39;3.38;;;1.08;;
76320;SDS011;65132;52.088;5.402;2023-08-01T00:34:11;5.13;;;1.13;;
76320;SDS011;65132;52.088;5.402;2023-08-01T00:36:39;7.90;;;1.40;;
76320;SDS011;65132;52.088;5.402;2023-08-01T00:39:09;4.40;;;1.23;;
76320;SDS011;65132;52.088;5.402;2023-08-01T00:41:44;6.53;;;1.48;;
76320;SDS011;65132;52.088;5.402;2023-08-01T00:44:13;6.38;;;1.40;;
76320;SDS011;65132;52.088;5.402;2023-08-01T00:46:44;6.40;;;1.58;;
76320;SDS011;65132;52.088;5.402;2023-08-01T00:49:25;5.43;;;1.48;;
76320;SDS011;65132;52.088;5.402;2023-08-01T00:51:57;3.42;;;1.58;;
76320;SDS011;65132;52.088;5.402;2023-08-01T00:54:24;4.82;;;1.40;;
76320;SDS011;65132;52.088;5.402;2023-08-01T00:56:52;5.47;;;1.80;;
76320;SDS011;65132;52.088;5.402;2023-08-01T00:59:27;7.53;;;1.52;;
76320;SDS011;65132;52.088;5.402;2023-08-01T01:01:54;4.38;;;1.70;;
76320;SDS011;65132;52.088;5.402;2023-08-01T01:04:23;5.43;;;1.90;;
76320;SDS011;65132;52.088;5.402;2023-08-01T01:06:53;6.00;;;2.17;;
76320;SDS011;65132;52.088;5.402;2023-08-01T01:09:29;4.35;;;1.88;;
76320;SDS011;65132;52.088;5.402;2023-08-01T01:11:56;7.63;;;1.67;;
76320;SDS011;65132;52.088;5.402;2023-08-01T01:14:29;4.57;;;2.10;;
76320;SDS011;65132;52.088;5.402;2023-08-01T01:16:56;8.15;;;1.90;;
76320;SDS011;65132;52.088;5.402;2023-08-01T01:19:25;7.35;;;2.05;;
76320;SDS011;65132;52.088;5.402;2023-08-01T01:21:57;4.75;;;2.13;;
76320;SDS011;65132;52.088;5.402;2023-08-01T01:24:24;6.53;;;1.88;;
76320;SDS011;65132;52.088;5.402;2023-08-01T01:26:54;6.88;;;2.22;;
76320;SDS011;65132;52.088;5.402;2023-08-01T01:29:30;6.47;;;2.10;;
76320;SDS011;65132;52.088;5.402;2023-08-01T01:32:01;7.35;;;2.38;;
76320;SDS011;65132;52.088;5.402;2023-08-01T01:34:56;8.32;;;2.67;;
76320;SDS011;65132;52.088;5.402;2023-08-01T01:37:24;8.23;;;3.00;;
76320;SDS011;65132;52.088;5.402;2023-08-01T01:39:51;7.30;;;2.72;;
76320;SDS011;65132;52.088;5.402;2023-08-01T01:42:33;9.30;;;3.13;;
76320;SDS011;65132;52.088;5.402;2023-08-01T01:45:05;5.57;;;2.63;;
76320;SDS011;65132;52.088;5.402;2023-08-01T01:47:34;6.00;;;3.00;;
76320;SDS011;65132;52.088;5.402;2023-08-01T01:50:03;9.45;;;3.20;;
76320;SDS011;65132;52.088;5.402;2023-08-01T01:52:34;7.72;;;3.42;;
76320;SDS011;65132;52.088;5.402;2023-08-01T01:55:02;11.35;;;3.53;;
76320;SDS011;65132;52.088;5.402;2023-08-01T01:57:29;8.68;;;3.60;;
76320;SDS011;65132;52.088;5.402;2023-08-01T01:59:55;14.63;;;3.72;;
76320;SDS011;65132;52.088;5.402;2023-08-01T02:02:24;12.02;;;4.05;;
76320;SDS011;65132;52.088;5.402;2023-08-01T02:04:56;9.13;;;3.30;;
76320;SDS011;65132;52.088;5.402;2023-08-01T02:07:23;9.18;;;3.75;;
76320;SDS011;65132;52.088;5.402;2023-08-01T02:10:00;9.80;;;4.00;;
76320;SDS011;65132;52.088;5.402;2023-08-01T02:12:27;13.57;;;4.70;;
76320;SDS011;65132;52.088;5.402;2023-08-01T02:14:54;10.27;;;4.00;;
76320;SDS011;65132;52.088;5.402;2023-08-01T02:17:23;12.43;;;4.60;;
76320;SDS011;65132;52.088;5.402;2023-08-01T02:19:50;9.20;;;3.80;;
76320;SDS011;65132;52.088;5.402;2023-08-01T02:22:34;12.45;;;4.75;;
76320;SDS011;65132;52.088;5.402;2023-08-01T02:25:01;18.50;;;4.50;;
76320;SDS011;65132;52.088;5.402;2023-08-01T02:27:27;9.75;;;4.03;;
76320;SDS011;65132;52.088;5.402;2023-08-01T02:29:56;10.88;;;4.60;;
76320;SDS011;65132;52.088;5.402;2023-08-01T02:32:23;11.88;;;4.25;;
76320;SDS011;65132;52.088;5.402;2023-08-01T02:34:49;14.40;;;4.38;;
76320;SDS011;65132;52.088;5.402;2023-08-01T02:37:23;11.82;;;4.28;;
76320;SDS011;65132;52.088;5.402;2023-08-01T02:39:50;11.38;;;4.82;;
76320;SDS011;65132;52.088;5.402;2023-08-01T02:42:18;10.43;;;3.72;;
76320;SDS011;65132;52.088;5.402;2023-08-01T02:44:56;10.00;;;4.30;;
76320;SDS011;65132;52.088;5.402;2023-08-01T02:47:23;11.70;;;5.03;;
76320;SDS011;65132;52.088;5.402;2023-08-01T02:50:14;14.80;;;4.80;;
76320;SDS011;65132;52.088;5.402;2023-08-01T02:52:41;11.75;;;4.20;;
76320;SDS011;65132;52.088;5.402;2023-08-01T02:55:07;10.38;;;4.00;;
76320;SDS011;65132;52.088;5.402;2023-08-01T02:57:43;10.00;;;3.78;;
76320;SDS011;65132;52.088;5.402;2023-08-01T03:00:10;15.13;;;4.50;;
76320;SDS011;65132;52.088;5.402;2023-08-01T03:02:42;11.18;;;4.50;;
76320;SDS011;65132;52.088;5.402;2023-08-01T03:05:08;12.38;;;4.85;;
76320;SDS011;65132;52.088;5.402;2023-08-01T03:07:35;9.23;;;3.97;;
76320;SDS011;65132;52.088;5.402;2023-08-01T03:10:02;12.93;;;3.90;;
76320;SDS011;65132;52.088;5.402;2023-08-01T03:12:31;7.78;;;3.25;;
76320;SDS011;65132;52.088;5.402;2023-08-01T03:14:57;11.32;;;2.75;;
76320;SDS011;65132;52.088;5.402;2023-08-01T03:17:24;5.65;;;2.30;;
76320;SDS011;65132;52.088;5.402;2023-08-01T03:19:50;6.90;;;2.75;;
76320;SDS011;65132;52.088;5.402;2023-08-01T03:22:17;6.30;;;2.08;;
76320;SDS011;65132;52.088;5.402;2023-08-01T03:24:43;6.60;;;2.05;;
76320;SDS011;65132;52.088;5.402;2023-08-01T03:27:19;4.53;;;1.95;;
76320;SDS011;65132;52.088;5.402;2023-08-01T03:29:57;5.50;;;2.45;;
76320;SDS011;65132;52.088;5.402;2023-08-01T03:32:24;7.05;;;2.08;;
76320;SDS011;65132;52.088;5.402;2023-08-01T03:34:51;5.38;;;1.80;;
76320;SDS011;65132;52.088;5.402;2023-08-01T03:37:22;6.78;;;2.10;;
76320;SDS011;65132;52.088;5.402;2023-08-01T03:39:50;5.65;;;2.08;;
76320;SDS011;65132;52.088;5.402;2023-08-01T03:42:16;4.97;;;1.90;;
76320;SDS011;65132;52.088;5.402;2023-08-01T03:44:47;7.75;;;2.50;;
76320;SDS011;65132;52.088;5.402;2023-08-01T03:47:16;8.57;;;2.67;;
76320;SDS011;65132;52.088;5.402;2023-08-01T03:50:00;10.32;;;2.88;;
76320;SDS011;65132;52.088;5.402;2023-08-01T03:52:29;10.98;;;2.67;;
76320;SDS011;65132;52.088;5.402;2023-08-01T03:54:57;7.00;;;2.40;;
76320;SDS011;65132;52.088;5.402;2023-08-01T03:57:23;6.60;;;1.67;;
76320;SDS011;65132;52.088;5.402;2023-08-01T03:59:56;6.45;;;1.95;;
76320;SDS011;65132;52.088;5.402;2023-08-01T04:02:22;6.57;;;1.60;;
76320;SDS011;65132;52.088;5.402;2023-08-01T04:04:52;6.97;;;2.10;;
76320;SDS011;65132;52.088;5.402;2023-08-01T04:07:22;6.63;;;1.67;;
76320;SDS011;65132;52.088;5.402;2023-08-01T04:09:56;7.05;;;1.85;;
76320;SDS011;65132;52.088;5.402;2023-08-01T04:12:22;7.00;;;1.65;;
76320;SDS011;65132;52.088;5.402;2023-08-01T04:14:48;5.15;;;1.83;;
76320;SDS011;65132;52.088;5.402;2023-08-01T04:17:17;7.32;;;2.58;;
76320;SDS011;65132;52.088;5.402;2023-08-01T04:19:54;7.47;;;1.55;;
76320;SDS011;65132;52.088;5.402;2023-08-01T04:22:22;10.32;;;2.67;;
76320;SDS011;65132;52.088;5.402;2023-08-01T04:24:51;5.03;;;2.08;;
76320;SDS011;65132;52.088;5.402;2023-08-01T04:27:21;11.93;;;2.72;;
76320;SDS011;65132;52.088;5.402;2023-08-01T04:29:49;6.15;;;2.67;;
76320;SDS011;65132;52.088;5.402;2023-08-01T04:32:20;6.75;;;2.72;;
76320;SDS011;65132;52.088;5.402;2023-08-01T04:34:48;9.73;;;2.70;;
76320;SDS011;65132;52.088;5.402;2023-08-01T04:37:16;7.18;;;2.40;;
76320;SDS011;65132;52.088;5.402;2023-08-01T04:39:48;8.32;;;2.67;;
76320;SDS011;65132;52.088;5.402;2023-08-01T04:42:18;10.50;;;2.95;;
76320;SDS011;65132;52.088;5.402;2023-08-01T04:44:44;9.25;;;3.08;;
76320;SDS011;65132;52.088;5.402;2023-08-01T04:47:20;11.98;;;3.50;;
76320;SDS011;65132;52.088;5.402;2023-08-01T04:52:16;11.00;;;3.00;;
76320;SDS011;65132;52.088;5.402;2023-08-01T04:54:47;7.00;;;2.60;;
76320;SDS011;65132;52.088;5.402;2023-08-01T04:57:20;7.22;;;2.38;;
76320;SDS011;65132;52.088;5.402;2023-08-01T04:59:48;11.10;;;3.25;;
76320;SDS011;65132;52.088;5.402;2023-08-01T05:02:14;8.50;;;2.92;;
76320;SDS011;65132;52.088;5.402;2023-08-01T05:04:41;10.68;;;2.90;;
76320;SDS011;65132;52.088;5.402;2023-08-01T05:07:11;8.45;;;2.55;;
76320;SDS011;65132;52.088;5.402;2023-08-01T05:09:38;8.25;;;2.95;;
76320;SDS011;65132;52.088;5.402;2023-08-01T05:12:07;10.80;;;3.13;;
76320;SDS011;65132;52.088;5.402;2023-08-01T05:14:34;11.32;;;3.15;;
76320;SDS011;65132;52.088;5.402;2023-08-01T05:17:08;8.55;;;2.78;;
76320;SDS011;65132;52.088;5.402;2023-08-01T05:19:37;12.52;;;2.95;;
76320;SDS011;65132;52.088;5.402;2023-08-01T05:22:06;9.70;;;2.63;;
76320;SDS011;65132;52.088;5.402;2023-08-01T05:24:37;7.40;;;2.67;;
76320;SDS011;65132;52.088;5.402;2023-08-01T05:27:08;8.35;;;2.88;;
76320;SDS011;65132;52.088;5.402;2023-08-01T05:29:36;9.32;;;2.88;;
76320;SDS011;65132;52.088;5.402;2023-08-01T05:32:13;11.85;;;3.03;;
76320;SDS011;65132;52.088;5.402;2023-08-01T05:34:40;11.88;;;2.55;;
76320;SDS011;65132;52.088;5.402;2023-08-01T05:37:11;9.40;;;2.95;;
76320;SDS011;65132;52.088;5.402;2023-08-01T05:39:40;10.40;;;2.85;;
76320;SDS011;65132;52.088;5.402;2023-08-01T05:42:08;11.50;;;2.70;;
76320;SDS011;65132;52.088;5.402;2023-08-01T05:44:39;10.32;;;2.90;;
76320;SDS011;65132;52.088;5.402;2023-08-01T05:47:05;10.15;;;2.80;;
76320;SDS011;65132;52.088;5.402;2023-08-01T05:49:40;8.20;;;2.72;;
76320;SDS011;65132;52.088;5.402;2023-08-01T05:52:25;9.73;;;2.70;;
76320;SDS011;65132;52.088;5.402;2023-08-01T05:54:54;15.20;;;3.25;;
76320;SDS011;65132;52.088;5.402;2023-08-01T05:57:21;7.28;;;2.13;;
76320;SDS011;65132;52.088;5.402;2023-08-01T05:59:49;10.50;;;2.65;;
76320;SDS011;65132;52.088;5.402;2023-08-01T06:02:16;9.70;;;2.53;;
76320;SDS011;65132;52.088;5.402;2023-08-01T06:04:47;9.02;;;2.55;;
76320;SDS011;65132;52.088;5.402;2023-08-01T06:07:15;11.05;;;2.90;;
76320;SDS011;65132;52.088;5.402;2023-08-01T06:09:42;9.57;;;2.42;;
76320;SDS011;65132;52.088;5.402;2023-08-01T06:12:18;8.48;;;2.40;;
76320;SDS011;65132;52.088;5.402;2023-08-01T06:14:46;9.27;;;2.60;;
76320;SDS011;65132;52.088;5.402;2023-08-01T06:17:15;9.38;;;2.67;;
76320;SDS011;65132;52.088;5.402;2023-08-01T06:20:00;6.55;;;2.03;;
76320;SDS011;65132;52.088;5.402;2023-08-01T06:22:29;7.50;;;2.10;;
76320;SDS011;65132;52.088;5.402;2023-08-01T06:24:56;8.65;;;2.00;;
76320;SDS011;65132;52.088;5.402;2023-08-01T06:27:22;9.68;;;2.53;;
76320;SDS011;65132;52.088;5.402;2023-08-01T06:29:55;7.53;;;2.10;;
76320;SDS011;65132;52.088;5.402;2023-08-01T06:32:21;8.35;;;2.10;;
76320;SDS011;65132;52.088;5.402;2023-08-01T06:35:02;8.32;;;2.30;;
76320;SDS011;65132;52.088;5.402;2023-08-01T06:37:30;5.93;;;1.58;;
76320;SDS011;65132;52.088;5.402;2023-08-01T06:39:57;7.43;;;2.45;;
76320;SDS011;65132;52.088;5.402;2023-08-01T06:44:56;9.00;;;2.13;;
76320;SDS011;65132;52.088;5.402;2023-08-01T06:47:32;8.60;;;1.83;;
76320;SDS011;65132;52.088;5.402;2023-08-01T06:50:07;9.95;;;2.15;;
76320;SDS011;65132;52.088;5.402;2023-08-01T06:53:02;7.50;;;1.88;;
76320;SDS011;65132;52.088;5.402;2023-08-01T06:55:37;9.27;;;1.88;;
76320;SDS011;65132;52.088;5.402;2023-08-01T06:58:06;6.45;;;1.60;;
76320;SDS011;65132;52.088;5.402;2023-08-01T07:00:33;5.35;;;1.83;;
76320;SDS011;65132;52.088;5.402;2023-08-01T07:03:04;9.40;;;2.63;;
76320;SDS011;65132;52.088;5.402;2023-08-01T07:05:33;8.85;;;1.63;;
76320;SDS011;65132;52.088;5.402;2023-08-01T07:07:59;4.50;;;1.48;;
76320;SDS011;65132;52.088;5.402;2023-08-01T07:10:30;9.07;;;1.73;;
76320;SDS011;65132;52.088;5.402;2023-08-01T07:13:02;5.90;;;1.75;;
76320;SDS011;65132;52.088;5.402;2023-08-01T07:15:30;6.57;;;1.48;;
76320;SDS011;65132;52.088;5.402;2023-08-01T07:17:58;3.90;;;1.33;;
76320;SDS011;65132;52.088;5.402;2023-08-01T07:20:27;6.03;;;1.50;;
76320;SDS011;65132;52.088;5.402;2023-08-01T07:23:03;6.55;;;1.52;;
76320;SDS011;65132;52.088;5.402;2023-08-01T07:25:32;9.15;;;1.75;;
76320;SDS011;65132;52.088;5.402;2023-08-01T07:28:01;7.80;;;1.55;;
76320;SDS011;65132;52.088;5.402;2023-08-01T07:30:28;6.50;;;1.75;;
76320;SDS011;65132;52.088;5.402;2023-08-01T07:33:05;4.15;;;1.45;;
76320;SDS011;65132;52.088;5.402;2023-08-01T07:35:34;4.85;;;1.40;;
76320;SDS011;65132;52.088;5.402;2023-08-01T07:38:05;7.38;;;1.92;;
76320;SDS011;65132;52.088;5.402;2023-08-01T07:40:31;6.10;;;1.33;;
76320;SDS011;65132;52.088;5.402;2023-08-01T07:43:11;3.72;;;1.15;;
76320;SDS011;65132;52.088;5.402;2023-08-01T07:45:42;6.72;;;1.30;;
76320;SDS011;65132;52.088;5.402;2023-08-01T07:48:15;6.03;;;1.10;;
76320;SDS011;65132;52.088;5.402;2023-08-01T07:50:47;6.45;;;1.48;;
76320;SDS011;65132;52.088;5.402;2023-08-01T07:53:16;6.65;;;1.42;;
76320;SDS011;65132;52.088;5.402;2023-08-01T07:55:51;8.05;;;1.50;;
76320;SDS011;65132;52.088;5.402;2023-08-01T07:58:18;6.72;;;1.70;;
76320;SDS011;65132;52.088;5.402;2023-08-01T08:00:45;7.03;;;1.65;;
76320;SDS011;65132;52.088;5.402;2023-08-01T08:03:11;4.68;;;1.45;;
76320;SDS011;65132;52.088;5.402;2023-08-01T08:05:38;5.00;;;1.45;;
76320;SDS011;65132;52.088;5.402;2023-08-01T08:08:08;6.65;;;1.42;;
76320;SDS011;65132;52.088;5.402;2023-08-01T08:10:36;6.65;;;1.67;;
76320;SDS011;65132;52.088;5.402;2023-08-01T08:13:06;5.53;;;1.60;;
76320;SDS011;65132;52.088;5.402;2023-08-01T08:15:32;5.60;;;1.80;;
76320;SDS011;65132;52.088;5.402;2023-08-01T08:17:59;7.47;;;1.52;;
76320;SDS011;65132;52.088;5.402;2023-08-01T08:20:26;3.88;;;1.15;;
76320;SDS011;65132;52.088;5.402;2023-08-01T08:22:55;4.10;;;1.35;;
76320;SDS011;65132;52.088;5.402;2023-08-01T08:25:24;6.32;;;1.30;;
76320;SDS011;65132;52.088;5.402;2023-08-01T08:27:53;5.88;;;1.58;;
76320;SDS011;65132;52.088;5.402;2023-08-01T08:30:28;4.30;;;1.33;;
76320;SDS011;65132;52.088;5.402;2023-08-01T08:32:56;2.80;;;1.13;;
76320;SDS011;65132;52.088;5.402;2023-08-01T08:35:31;4.35;;;1.38;;
76320;SDS011;65132;52.088;5.402;2023-08-01T08:37:59;3.35;;;1.10;;
76320;SDS011;65132;52.088;5.402;2023-08-01T08:40:27;4.85;;;1.52;;
76320;SDS011;65132;52.088;5.402;2023-08-01T08:42:54;5.60;;;1.17;;
76320;SDS011;65132;52.088;5.402;2023-08-01T08:45:22;3.97;;;1.20;;
76320;SDS011;65132;52.088;5.402;2023-08-01T08:47:53;5.40;;;1.42;;
76320;SDS011;65132;52.088;5.402;2023-08-01T08:50:22;3.85;;;1.00;;
76320;SDS011;65132;52.088;5.402;2023-08-01T08:52:50;4.15;;;0.95;;
76320;SDS011;65132;52.088;5.402;2023-08-01T08:55:19;4.10;;;0.90;;
76320;SDS011;65132;52.088;5.402;2023-08-01T08:57:49;2.95;;;0.80;;
76320;SDS011;65132;52.088;5.402;2023-08-01T09:00:16;3.72;;;1.10;;
76320;SDS011;65132;52.088;5.402;2023-08-01T09:02:47;4.90;;;0.75;;
76320;SDS011;65132;52.088;5.402;2023-08-01T09:05:14;3.65;;;0.98;;
76320;SDS011;65132;52.088;5.402;2023-08-01T09:07:41;5.53;;;0.90;;
76320;SDS011;65132;52.088;5.402;2023-08-01T09:10:10;6.13;;;1.40;;
76320;SDS011;65132;52.088;5.402;2023-08-01T09:12:37;2.35;;;0.80;;
76320;SDS011;65132;52.088;5.402;2023-08-01T09:15:03;4.03;;;1.17;;
76320;SDS011;65132;52.088;5.402;2023-08-01T09:17:35;4.72;;;1.13;;
76320;SDS011;65132;52.088;5.402;2023-08-01T09:20:13;2.53;;;0.75;;
76320;SDS011;65132;52.088;5.402;2023-08-01T09:22:45;3.88;;;1.05;;
76320;SDS011;65132;52.088;5.402;2023-08-01T09:25:15;6.70;;;1.17;;
76320;SDS011;65132;52.088;5.402;2023-08-01T09:27:45;3.03;;;0.73;;
76320;SDS011;65132;52.088;5.402;2023-08-01T09:30:15;4.00;;;0.88;;
76320;SDS011;65132;52.088;5.402;2023-08-01T09:32:56;2.70;;;1.05;;
76320;SDS011;65132;52.088;5.402;2023-08-01T09:35:24;3.45;;;0.93;;
76320;SDS011;65132;52.088;5.402;2023-08-01T09:37:51;5.32;;;0.90;;
76320;SDS011;65132;52.088;5.402;2023-08-01T09:40:18;4.47;;;1.08;;
76320;SDS011;65132;52.088;5.402;2023-08-01T09:42:45;5.10;;;1.10;;
76320;SDS011;65132;52.088;5.402;2023-08-01T09:45:12;5.60;;;1.00;;
76320;SDS011;65132;52.088;5.402;2023-08-01T09:47:40;4.80;;;1.00;;
76320;SDS011;65132;52.088;5.402;2023-08-01T09:50:19;5.32;;;1.30;;
76320;SDS011;65132;52.088;5.402;2023-08-01T09:52:51;5.50;;;1.02;;
76320;SDS011;65132;52.088;5.402;2023-08-01T09:55:20;5.35;;;1.30;;
76320;SDS011;65132;52.088;5.402;2023-08-01T09:57:53;3.80;;;0.93;;
76320;SDS011;65132;52.088;5.402;2023-08-01T10:00:27;6.88;;;1.13;;
76320;SDS011;65132;52.088;5.402;2023-08-01T10:02:59;4.50;;;1.08;;
76320;SDS011;65132;52.088;5.402;2023-08-01T10:05:30;5.13;;;1.00;;
76320;SDS011;65132;52.088;5.402;2023-08-01T10:07:59;4.32;;;0.98;;
76320;SDS011;65132;52.088;5.402;2023-08-01T10:10:29;6.68;;;1.40;;
76320;SDS011;65132;52.088;5.402;2023-08-01T10:12:58;5.38;;;1.20;;
76320;SDS011;65132;52.088;5.402;2023-08-01T10:15:28;3.28;;;0.95;;
76320;SDS011;65132;52.088;5.402;2023-08-01T10:17:56;4.15;;;1.27;;
76320;SDS011;65132;52.088;5.402;2023-08-01T10:20:23;5.20;;;1.02;;
76320;SDS011;65132;52.088;5.402;2023-08-01T10:23:01;2.78;;;1.25;;
76320;SDS011;65132;52.088;5.402;2023-08-01T10:25:37;5.00;;;1.00;;
76320;SDS011;65132;52.088;5.402;2023-08-01T10:28:13;4.88;;;1.52;;
76320;SDS011;65132;52.088;5.402;2023-08-01T10:30:39;4.32;;;1.08;;
76320;SDS011;65132;52.088;5.402;2023-08-01T10:33:13;3.55;;;0.85;;
76320;SDS011;65132;52.088;5.402;2023-08-01T10:35:41;3.22;;;0.93;;
76320;SDS011;65132;52.088;5.402;2023-08-01T10:38:11;4.65;;;1.02;;
76320;SDS011;65132;52.088;5.402;2023-08-01T10:40:42;4.32;;;1.05;;
76320;SDS011;65132;52.088;5.402;2023-08-01T10:43:22;4.75;;;0.93;;
76320;SDS011;65132;52.088;5.402;2023-08-01T10:48:30;5.68;;;1.00;;
76320;SDS011;65132;52.088;5.402;2023-08-01T10:50:57;4.15;;;0.82;;
76320;SDS011;65132;52.088;5.402;2023-08-01T10:53:24;5.30;;;0.93;;
76320;SDS011;65132;52.088;5.402;2023-08-01T10:55:51;4.22;;;1.10;;
76320;SDS011;65132;52.088;5.402;2023-08-01T10:58:18;3.85;;;1.10;;
76320;SDS011;65132;52.088;5.402;2023-08-01T11:00:58;2.20;;;0.80;;
76320;SDS011;65132;52.088;5.402;2023-08-01T11:03:35;3.28;;;0.90;;
76320;SDS011;65132;52.088;5.402;2023-08-01T11:06:03;4.28;;;0.77;;
76320;SDS011;65132;52.088;5.402;2023-08-01T11:08:36;4.53;;;0.90;;
76320;SDS011;65132;52.088;5.402;2023-08-01T11:13:49;3.72;;;1.00;;
76320;SDS011;65132;52.088;5.402;2023-08-01T11:16:21;3.88;;;0.70;;
76320;SDS011;65132;52.088;5.402;2023-08-01T11:18:48;4.00;;;0.73;;
76320;SDS011;65132;52.088;5.402;2023-08-01T11:21:26;3.67;;;0.82;;
76320;SDS011;65132;52.088;5.402;2023-08-01T11:23:53;5.68;;;1.25;;
76320;SDS011;65132;52.088;5.402;2023-08-01T11:26:23;2.33;;;0.68;;
76320;SDS011;65132;52.088;5.402;2023-08-01T11:28:49;3.85;;;0.98;;
76320;SDS011;65132;52.088;5.402;2023-08-01T11:31:17;4.38;;;0.95;;
76320;SDS011;65132;52.088;5.402;2023-08-01T11:33:54;4.97;;;1.02;;
76320;SDS011;65132;52.088;5.402;2023-08-01T11:36:26;2.50;;;1.17;;
76320;SDS011;65132;52.088;5.402;2023-08-01T11:38:55;4.15;;;0.98;;
76320;SDS011;65132;52.088;5.402;2023-08-01T11:41:27;2.50;;;0.60;;
76320;SDS011;65132;52.088;5.402;2023-08-01T11:44:01;4.60;;;1.30;;
76320;SDS011;65132;52.088;5.402;2023-08-01T11:46:31;4.75;;;0.80;;
76320;SDS011;65132;52.088;5.402;2023-08-01T11:49:01;2.58;;;0.70;;
76320;SDS011;65132;52.088;5.402;2023-08-01T11:51:30;5.03;;;1.08;;
76320;SDS011;65132;52.088;5.402;2023-08-01T11:54:13;2.47;;;0.80;;
76320;SDS011;65132;52.088;5.402;2023-08-01T11:56:41;5.90;;;1.02;;
76320;SDS011;65132;52.088;5.402;2023-08-01T11:59:15;4.70;;;0.80;;
76320;SDS011;65132;52.088;5.402;2023-08-01T12:01:47;4.95;;;0.93;;
76320;SDS011;65132;52.088;5.402;2023-08-01T12:04:26;5.10;;;0.80;;
76320;SDS011;65132;52.088;5.402;2023-08-01T12:06:54;6.85;;;1.17;;
76320;SDS011;65132;52.088;5.402;2023-08-01T12:09:23;3.25;;;0.73;;
76320;SDS011;65132;52.088;5.402;2023-08-01T12:11:59;5.25;;;1.20;;
76320;SDS011;65132;52.088;5.402;2023-08-01T12:16:57;4.43;;;1.15;;
76320;SDS011;65132;52.088;5.402;2023-08-01T12:19:25;6.03;;;0.90;;
76320;SDS011;65132;52.088;5.402;2023-08-01T12:21:52;4.65;;;1.13;;
76320;SDS011;65132;52.088;5.402;2023-08-01T12:24:26;4.53;;;1.20;;
76320;SDS011;65132;52.088;5.402;2023-08-01T12:26:53;4.28;;;1.10;;
76320;SDS011;65132;52.088;5.402;2023-08-01T12:29:20;6.75;;;1.00;;
76320;SDS011;65132;52.088;5.402;2023-08-01T12:31:49;5.72;;;1.17;;
76320;SDS011;65132;52.088;5.402;2023-08-01T12:34:16;3.22;;;0.88;;
76320;SDS011;65132;52.088;5.402;2023-08-01T12:36:42;3.40;;;0.98;;
76320;SDS011;65132;52.088;5.402;2023-08-01T12:39:09;7.25;;;1.20;;
76320;SDS011;65132;52.088;5.402;2023-08-01T12:41:37;5.25;;;1.80;;
76320;SDS011;65132;52.088;5.402;2023-08-01T12:44:06;7.30;;;1.20;;
76320;SDS011;65132;52.088;5.402;2023-08-01T12:46:33;2.92;;;0.80;;
76320;SDS011;65132;52.088;5.402;2023-08-01T12:49:00;6.03;;;1.23;;
76320;SDS011;65132;52.088;5.402;2023-08-01T12:51:27;4.63;;;0.80;;
76320;SDS011;65132;52.088;5.402;2023-08-01T12:53:53;3.55;;;0.90;;
76320;SDS011;65132;52.088;5.402;2023-08-01T12:56:20;4.55;;;0.75;;
76320;SDS011;65132;52.088;5.402;2023-08-01T12:58:46;7.10;;;1.15;;
76320;SDS011;65132;52.088;5.402;2023-08-01T13:01:13;6.32;;;0.95;;
76320;SDS011;65132;52.088;5.402;2023-08-01T13:03:39;3.03;;;0.50;;
76320;SDS011;65132;52.088;5.402;2023-08-01T13:06:06;2.42;;;0.73;;
76320;SDS011;65132;52.088;5.402;2023-08-01T13:08:39;5.53;;;1.08;;
76320;SDS011;65132;52.088;5.402;2023-08-01T13:11:09;3.78;;;0.75;;
76320;SDS011;65132;52.088;5.402;2023-08-01T13:13:47;2.33;;;1.08;;
76320;SDS011;65132;52.088;5.402;2023-08-01T13:16:13;4.57;;;1.08;;
76320;SDS011;65132;52.088;5.402;2023-08-01T13:18:40;3.55;;;0.93;;
76320;SDS011;65132;52.088;5.402;2023-08-01T13:21:07;3.58;;;1.38;;
76320;SDS011;65132;52.088;5.402;2023-08-01T13:23:33;5.10;;;1.30;;
76320;SDS011;65132;52.088;5.402;2023-08-01T13:26:00;5.53;;;1.00;;
76320;SDS011;65132;52.088;5.402;2023-08-01T13:28:27;4.65;;;1.00;;
76320;SDS011;65132;52.088;5.402;2023-08-01T13:30:56;5.18;;;1.10;;
76320;SDS011;65132;52.088;5.402;2023-08-01T13:33:22;5.90;;;1.23;;
76320;SDS011;65132;52.088;5.402;2023-08-01T13:35:51;3.95;;;1.33;;
76320;SDS011;65132;52.088;5.402;2023-08-01T13:38:18;8.15;;;1.55;;
76320;SDS011;65132;52.088;5.402;2023-08-01T13:40:45;2.95;;;1.05;;
76320;SDS011;65132;52.088;5.402;2023-08-01T13:43:11;6.97;;;1.20;;
76320;SDS011;65132;52.088;5.402;2023-08-01T13:45:38;4.18;;;1.23;;
76320;SDS011;65132;52.088;5.402;2023-08-01T13:48:05;4.22;;;1.58;;
76320;SDS011;65132;52.088;5.402;2023-08-01T13:50:31;7.82;;;1.20;;
76320;SDS011;65132;52.088;5.402;2023-08-01T13:52:58;5.72;;;1.00;;
76320;SDS011;65132;52.088;5.402;2023-08-01T13:55:25;6.22;;;1.02;;
76320;SDS011;65132;52.088;5.402;2023-08-01T13:57:51;6.50;;;1.17;;
76320;SDS011;65132;52.088;5.402;2023-08-01T14:00:18;3.40;;;0.77;;
76320;SDS011;65132;52.088;5.402;2023-08-01T14:02:44;4.55;;;0.80;;
76320;SDS011;65132;52.088;5.402;2023-08-01T14:05:11;3.55;;;0.82;;
76320;SDS011;65132;52.088;5.402;2023-08-01T14:07:37;5.75;;;0.93;;
76320;SDS011;65132;52.088;5.402;2023-08-01T14:10:09;2.65;;;0.77;;
76320;SDS011;65132;52.088;5.402;2023-08-01T14:12:36;4.68;;;1.33;;
76320;SDS011;65132;52.088;5.402;2023-08-01T14:15:05;4.22;;;0.85;;
76320;SDS011;65132;52.088;5.402;2023-08-01T14:17:35;6.22;;;1.08;;
76320;SDS011;65132;52.088;5.402;2023-08-01T14:20:02;5.40;;;0.90;;
76320;SDS011;65132;52.088;5.402;2023-08-01T14:22:29;4.43;;;1.00;;
76320;SDS011;65132;52.088;5.402;2023-08-01T14:24:56;5.13;;;0.93;;
76320;SDS011;65132;52.088;5.402;2023-08-01T14:27:30;4.20;;;0.82;;
76320;SDS011;65132;52.088;5.402;2023-08-01T14:29:56;3.80;;;1.00;;
76320;SDS011;65132;52.088;5.402;2023-08-01T14:32:26;4.38;;;0.90;;
76320;SDS011;65132;52.088;5.402;2023-08-01T14:34:53;4.13;;;1.08;;
76320;SDS011;65132;52.088;5.402;2023-08-01T14:37:20;4.75;;;0.85;;
76320;SDS011;65132;52.088;5.402;2023-08-01T14:39:47;5.28;;;1.05;;
76320;SDS011;65132;52.088;5.402;2023-08-01T14:42:14;5.05;;;1.05;;
76320;SDS011;65132;52.088;5.402;2023-08-01T14:44:40;4.13;;;1.10;;
76320;SDS011;65132;52.088;5.402;2023-08-01T14:47:10;4.00;;;0.73;;
76320;SDS011;65132;52.088;5.402;2023-08-01T14:49:38;4.28;;;1.25;;
76320;SDS011;65132;52.088;5.402;2023-08-01T14:52:04;4.45;;;0.73;;
76320;SDS011;65132;52.088;5.402;2023-08-01T14:57:08;6.05;;;0.88;;
76320;SDS011;65132;52.088;5.402;2023-08-01T14:59:35;4.93;;;1.02;;
76320;SDS011;65132;52.088;5.402;2023-08-01T15:02:16;5.55;;;0.80;;
76320;SDS011;65132;52.088;5.402;2023-08-01T15:04:46;3.15;;;0.90;;
76320;SDS011;65132;52.088;5.402;2023-08-01T15:07:25;6.85;;;0.98;;
76320;SDS011;65132;52.088;5.402;2023-08-01T15:09:59;5.10;;;1.00;;
76320;SDS011;65132;52.088;5.402;2023-08-01T15:12:37;4.00;;;0.82;;
76320;SDS011;65132;52.088;5.402;2023-08-01T15:15:04;3.83;;;0.73;;
76320;SDS011;65132;52.088;5.402;2023-08-01T15:17:41;4.05;;;0.90;;